sensor_id;sensor_type;location;lat;lon;timestamp;pressure;altitude;pressure_sealevel;temperature;humidity
69153;BME280;56261;51.580;4.578;2023-08-08T00:01:15;101626.25;;;15.09;100.00
69153;BME280;56261;51.580;4.578;2023-08-08T00:03:40;101640.66;;;15.08;100.00
69153;BME280;56261;51.580;4.578;2023-08-08T00:06:06;101639.31;;;15.12;100.00
69153;BME280;56261;51.580;4.578;2023-08-08T00:08:31;101639.31;;;15.12;100.00
69153;BME280;56261;51.580;4.578;2023-08-08T00:10:56;101632.91;;;15.13;100.00
69153;BME280;56261;51.580;4.578;2023-08-08T00:13:22;101634.31;;;15.09;100.00
69153;BME280;56261;51.580;4.578;2023-08-08T00:15:47;101628.38;;;15.14;100.00
69153;BME280;56261;51.580;4.578;2023-08-08T00:18:13;101615.53;;;15.01;100.00
69153;BME280;56261;51.580;4.578;2023-08-08T00:20:39;101611.06;;;14.93;100.00
69153;BME280;56261;51.580;4.578;2023-08-08T00:23:04;101617.09;;;14.95;100.00
69153;BME280;56261;51.580;4.578;2023-08-08T00:25:30;101609.41;;;14.92;100.00
69153;BME280;56261;51.580;4.578;2023-08-08T00:27:55;101625.34;;;14.94;100.00
69153;BME280;56261;51.580;4.578;2023-08-08T00:30:20;101619.13;;;14.93;100.00
69153;BME280;56261;51.580;4.578;2023-08-08T00:32:46;101619.59;;;14.97;100.00
69153;BME280;56261;51.580;4.578;2023-08-08T00:35:12;101618.78;;;14.97;100.00
69153;BME280;56261;51.580;4.578;2023-08-08T00:37:37;101621.22;;;15.06;100.00
69153;BME280;56261;51.580;4.578;2023-08-08T00:40:03;101631.28;;;15.04;100.00
69153;BME280;56261;51.580;4.578;2023-08-08T00:42:28;101632.97;;;15.05;100.00
69153;BME280;56261;51.580;4.578;2023-08-08T00:44:54;101620.91;;;15.01;100.00
69153;BME280;56261;51.580;4.578;2023-08-08T00:47:19;101612.19;;;14.99;100.00
69153;BME280;56261;51.580;4.578;2023-08-08T00:49:45;101621.41;;;15.05;100.00
69153;BME280;56261;51.580;4.578;2023-08-08T00:52:13;101617.03;;;15.04;100.00
69153;BME280;56261;51.580;4.578;2023-08-08T00:54:40;101613.63;;;14.87;100.00
69153;BME280;56261;51.580;4.578;2023-08-08T00:57:05;101616.50;;;14.85;100.00
69153;BME280;56261;51.580;4.578;2023-08-08T00:59:31;101622.75;;;14.78;100.00
69153;BME280;56261;51.580;4.578;2023-08-08T01:01:57;101620.06;;;14.78;100.00
69153;BME280;56261;51.580;4.578;2023-08-08T01:04:25;101611.22;;;14.69;100.00
69153;BME280;56261;51.580;4.578;2023-08-08T01:07:15;101605.22;;;14.67;100.00
69153;BME280;56261;51.580;4.578;2023-08-08T01:09:50;101602.16;;;14.70;100.00
69153;BME280;56261;51.580;4.578;2023-08-08T01:12:18;101601.69;;;14.66;100.00
69153;BME280;56261;51.580;4.578;2023-08-08T01:14:44;101602.41;;;14.60;100.00
69153;BME280;56261;51.580;4.578;2023-08-08T01:17:11;101604.06;;;14.61;100.00
69153;BME280;56261;51.580;4.578;2023-08-08T01:19:38;101600.84;;;14.66;100.00
69153;BME280;56261;51.580;4.578;2023-08-08T01:22:07;101592.50;;;14.61;100.00
69153;BME280;56261;51.580;4.578;2023-08-08T01:24:34;101596.03;;;14.61;100.00
69153;BME280;56261;51.580;4.578;2023-08-08T01:27:02;101597.03;;;14.60;100.00
69153;BME280;56261;51.580;4.578;2023-08-08T01:29:28;101599.53;;;14.62;100.00
69153;BME280;56261;51.580;4.578;2023-08-08T01:31:54;101601.34;;;14.69;100.00
69153;BME280;56261;51.580;4.578;2023-08-08T01:34:20;101598.72;;;14.84;100.00
69153;BME280;56261;51.580;4.578;2023-08-08T01:37:24;101598.91;;;14.83;100.00
69153;BME280;56261;51.580;4.578;2023-08-08T01:39:42;101597.50;;;14.87;100.00
69153;BME280;56261;51.580;4.578;2023-08-08T01:42:08;101595.69;;;14.87;100.00
69153;BME280;56261;51.580;4.578;2023-08-08T01:44:36;101585.75;;;14.88;100.00
69153;BME280;56261;51.580;4.578;2023-08-08T01:47:01;101596.56;;;14.80;100.00
69153;BME280;56261;51.580;4.578;2023-08-08T01:49:27;101598.91;;;14.83;100.00
69153;BME280;56261;51.580;4.578;2023-08-08T01:51:52;101595.59;;;14.95;100.00
69153;BME280;56261;51.580;4.578;2023-08-08T01:54:19;101595.69;;;14.87;100.00
69153;BME280;56261;51.580;4.578;2023-08-08T01:56:44;101587.97;;;14.84;100.00
69153;BME280;56261;51.580;4.578;2023-08-08T01:59:09;101584.81;;;14.81;100.00
69153;BME280;56261;51.580;4.578;2023-08-08T02:01:35;101589.16;;;14.82;100.00
69153;BME280;56261;51.580;4.578;2023-08-08T02:04:00;101592.09;;;14.72;100.00
69153;BME280;56261;51.580;4.578;2023-08-08T02:06:26;101580.16;;;14.74;100.00
69153;BME280;56261;51.580;4.578;2023-08-08T02:08:51;101580.31;;;14.73;100.00
69153;BME280;56261;51.580;4.578;2023-08-08T02:11:16;101586.88;;;14.70;100.00
69153;BME280;56261;51.580;4.578;2023-08-08T02:13:42;101586.06;;;14.70;100.00
69153;BME280;56261;51.580;4.578;2023-08-08T02:16:07;101585.47;;;14.83;100.00
69153;BME280;56261;51.580;4.578;2023-08-08T02:18:33;101582.41;;;14.86;100.00
69153;BME280;56261;51.580;4.578;2023-08-08T02:20:58;101582.13;;;14.81;100.00
69153;BME280;56261;51.580;4.578;2023-08-08T02:23:23;101575.94;;;14.80;100.00
69153;BME280;56261;51.580;4.578;2023-08-08T02:25:49;101581.38;;;14.87;100.00
69153;BME280;56261;51.580;4.578;2023-08-08T02:28:14;101574.25;;;14.79;100.00
69153;BME280;56261;51.580;4.578;2023-08-08T02:30:39;101566.69;;;14.83;100.00
69153;BME280;56261;51.580;4.578;2023-08-08T02:33:05;101575.44;;;14.77;100.00
69153;BME280;56261;51.580;4.578;2023-08-08T02:35:30;101570.06;;;14.77;100.00
69153;BME280;56261;51.580;4.578;2023-08-08T02:37:56;101562.25;;;14.67;100.00
69153;BME280;56261;51.580;4.578;2023-08-08T02:40:22;101571.72;;;14.78;100.00
69153;BME280;56261;51.580;4.578;2023-08-08T02:42:49;101565.56;;;14.69;100.00
69153;BME280;56261;51.580;4.578;2023-08-08T02:45:14;101565.91;;;14.74;100.00
69153;BME280;56261;51.580;4.578;2023-08-08T02:47:40;101562.59;;;14.64;100.00
69153;BME280;56261;51.580;4.578;2023-08-08T02:50:05;101571.84;;;14.61;100.00
69153;BME280;56261;51.580;4.578;2023-08-08T02:52:31;101580.56;;;14.63;100.00
69153;BME280;56261;51.580;4.578;2023-08-08T02:54:56;101570.03;;;14.53;100.00
69153;BME280;56261;51.580;4.578;2023-08-08T02:57:22;101576.94;;;14.56;100.00
69153;BME280;56261;51.580;4.578;2023-08-08T02:59:47;101562.03;;;14.45;100.00
69153;BME280;56261;51.580;4.578;2023-08-08T03:02:12;101575.75;;;14.50;100.00
69153;BME280;56261;51.580;4.578;2023-08-08T03:04:38;101572.94;;;14.44;100.00
69153;BME280;56261;51.580;4.578;2023-08-08T03:07:03;101571.56;;;14.48;100.00
69153;BME280;56261;51.580;4.578;2023-08-08T03:09:30;101572.94;;;14.44;100.00
69153;BME280;56261;51.580;4.578;2023-08-08T03:11:55;101568.75;;;14.41;100.00
69153;BME280;56261;51.580;4.578;2023-08-08T03:14:21;101566.06;;;14.41;100.00
69153;BME280;56261;51.580;4.578;2023-08-08T03:16:46;101562.44;;;14.34;100.00
69153;BME280;56261;51.580;4.578;2023-08-08T03:19:11;101568.94;;;14.40;100.00
69153;BME280;56261;51.580;4.578;2023-08-08T03:21:37;101564.09;;;14.35;100.00
69153;BME280;56261;51.580;4.578;2023-08-08T03:24:02;101564.47;;;14.32;100.00
69153;BME280;56261;51.580;4.578;2023-08-08T03:26:28;101557.28;;;14.24;100.00
69153;BME280;56261;51.580;4.578;2023-08-08T03:28:53;101562.00;;;14.22;100.00
69153;BME280;56261;51.580;4.578;2023-08-08T03:31:20;101548.41;;;14.24;100.00
69153;BME280;56261;51.580;4.578;2023-08-08T03:33:45;101560.69;;;14.18;100.00
69153;BME280;56261;51.580;4.578;2023-08-08T03:36:11;101558.84;;;14.19;100.00
69153;BME280;56261;51.580;4.578;2023-08-08T03:38:36;101565.91;;;14.11;100.00
69153;BME280;56261;51.580;4.578;2023-08-08T03:41:03;101563.09;;;14.05;100.00
69153;BME280;56261;51.580;4.578;2023-08-08T03:43:29;101572.63;;;14.07;100.00
69153;BME280;56261;51.580;4.578;2023-08-08T03:45:54;101568.47;;;14.05;100.00
69153;BME280;56261;51.580;4.578;2023-08-08T03:48:19;101559.22;;;14.07;100.00
69153;BME280;56261;51.580;4.578;2023-08-08T03:50:45;101558.41;;;14.07;100.00
69153;BME280;56261;51.580;4.578;2023-08-08T03:53:11;101561.09;;;13.99;100.00
69153;BME280;56261;51.580;4.578;2023-08-08T03:55:37;101558.41;;;13.99;100.00
69153;BME280;56261;51.580;4.578;2023-08-08T03:58:03;101558.13;;;13.94;100.00
69153;BME280;56261;51.580;4.578;2023-08-08T04:00:28;101549.41;;;13.91;100.00
69153;BME280;56261;51.580;4.578;2023-08-08T04:02:54;101546.38;;;13.95;100.00
69153;BME280;56261;51.580;4.578;2023-08-08T04:05:19;101553.81;;;13.84;100.00
69153;BME280;56261;51.580;4.578;2023-08-08T04:07:44;101547.38;;;13.94;100.00
69153;BME280;56261;51.580;4.578;2023-08-08T04:10:10;101535.06;;;13.76;100.00
69153;BME280;56261;51.580;4.578;2023-08-08T04:12:35;101537.34;;;13.87;100.00
69153;BME280;56261;51.580;4.578;2023-08-08T04:15:01;101553.97;;;13.83;100.00
69153;BME280;56261;51.580;4.578;2023-08-08T04:17:26;101532.72;;;13.73;100.00
69153;BME280;56261;51.580;4.578;2023-08-08T04:19:52;101537.22;;;13.81;100.00
69153;BME280;56261;51.580;4.578;2023-08-08T04:22:17;101539.06;;;13.80;100.00
69153;BME280;56261;51.580;4.578;2023-08-08T04:24:43;101544.28;;;13.74;100.00
69153;BME280;56261;51.580;4.578;2023-08-08T04:27:08;101536.75;;;13.69;100.00
69153;BME280;56261;51.580;4.578;2023-08-08T04:29:35;101542.06;;;13.77;100.00
69153;BME280;56261;51.580;4.578;2023-08-08T04:32:01;101540.56;;;13.83;100.00
69153;BME280;56261;51.580;4.578;2023-08-08T04:34:26;101539.06;;;13.80;100.00
69153;BME280;56261;51.580;4.578;2023-08-08T04:36:51;101536.72;;;13.77;100.00
69153;BME280;56261;51.580;4.578;2023-08-08T04:39:17;101536.84;;;13.84;100.00
69153;BME280;56261;51.580;4.578;2023-08-08T04:41:42;101539.22;;;13.79;100.00
69153;BME280;56261;51.580;4.578;2023-08-08T04:44:07;101548.91;;;13.88;100.00
69153;BME280;56261;51.580;4.578;2023-08-08T04:46:33;101544.84;;;14.00;100.00
69153;BME280;56261;51.580;4.578;2023-08-08T04:48:58;101543.69;;;13.95;100.00
69153;BME280;56261;51.580;4.578;2023-08-08T04:51:24;101534.13;;;14.00;100.00
69153;BME280;56261;51.580;4.578;2023-08-08T04:53:49;101540.97;;;14.03;100.00
69153;BME280;56261;51.580;4.578;2023-08-08T04:56:14;101538.13;;;14.04;100.00
69153;BME280;56261;51.580;4.578;2023-08-08T04:58:40;101547.47;;;14.08;100.00
69153;BME280;56261;51.580;4.578;2023-08-08T05:01:05;101537.84;;;13.91;100.00
69153;BME280;56261;51.580;4.578;2023-08-08T05:03:30;101541.66;;;13.97;100.00
69153;BME280;56261;51.580;4.578;2023-08-08T05:05:56;101542.19;;;13.92;100.00
69153;BME280;56261;51.580;4.578;2023-08-08T05:08:21;101541.16;;;13.93;100.00
69153;BME280;56261;51.580;4.578;2023-08-08T05:10:47;101542.84;;;13.94;100.00
69153;BME280;56261;51.580;4.578;2023-08-08T05:13:12;101541.09;;;14.09;100.00
69153;BME280;56261;51.580;4.578;2023-08-08T05:15:38;101539.13;;;14.03;100.00
69153;BME280;56261;51.580;4.578;2023-08-08T05:18:04;101547.00;;;14.05;100.00
69153;BME280;56261;51.580;4.578;2023-08-08T05:20:29;101552.88;;;14.00;100.00
69153;BME280;56261;51.580;4.578;2023-08-08T05:22:55;101550.41;;;14.22;100.00
69153;BME280;56261;51.580;4.578;2023-08-08T05:25:20;101542.38;;;14.22;100.00
69153;BME280;56261;51.580;4.578;2023-08-08T05:27:45;101547.19;;;14.26;100.00
69153;BME280;56261;51.580;4.578;2023-08-08T05:30:12;101546.75;;;14.23;100.00
69153;BME280;56261;51.580;4.578;2023-08-08T05:32:37;101542.03;;;14.25;100.00
69153;BME280;56261;51.580;4.578;2023-08-08T05:35:03;101545.53;;;14.25;100.00
69153;BME280;56261;51.580;4.578;2023-08-08T05:37:29;101536.84;;;14.46;100.00
69153;BME280;56261;51.580;4.578;2023-08-08T05:39:55;101538.16;;;14.50;100.00
69153;BME280;56261;51.580;4.578;2023-08-08T05:42:20;101551.75;;;14.57;100.00
69153;BME280;56261;51.580;4.578;2023-08-08T05:44:46;101547.94;;;14.74;100.00
69153;BME280;56261;51.580;4.578;2023-08-08T05:47:12;101555.38;;;14.64;100.00
69153;BME280;56261;51.580;4.578;2023-08-08T05:49:38;101553.19;;;14.68;100.00
69153;BME280;56261;51.580;4.578;2023-08-08T05:52:04;101554.53;;;14.87;100.00
69153;BME280;56261;51.580;4.578;2023-08-08T05:54:30;101556.59;;;14.85;100.00
69153;BME280;56261;51.580;4.578;2023-08-08T05:56:55;101559.63;;;14.82;100.00
69153;BME280;56261;51.580;4.578;2023-08-08T05:59:20;101560.44;;;14.82;100.00
69153;BME280;56261;51.580;4.578;2023-08-08T06:01:46;101554.75;;;15.00;100.00
69153;BME280;56261;51.580;4.578;2023-08-08T06:04:12;101554.97;;;15.13;100.00
69153;BME280;56261;51.580;4.578;2023-08-08T06:06:37;101556.94;;;15.20;100.00
69153;BME280;56261;51.580;4.578;2023-08-08T06:09:03;101554.97;;;15.13;100.00
69153;BME280;56261;51.580;4.578;2023-08-08T06:11:29;101562.22;;;15.13;100.00
69153;BME280;56261;51.580;4.578;2023-08-08T06:13:54;101553.63;;;15.32;100.00
69153;BME280;56261;51.580;4.578;2023-08-08T06:16:20;101559.78;;;15.18;100.00
69153;BME280;56261;51.580;4.578;2023-08-08T06:18:46;101569.09;;;15.30;100.00
69153;BME280;56261;51.580;4.578;2023-08-08T06:21:11;101555.78;;;15.52;100.00
69153;BME280;56261;51.580;4.578;2023-08-08T06:23:36;101567.09;;;15.47;100.00
69153;BME280;56261;51.580;4.578;2023-08-08T06:26:02;101569.88;;;15.54;100.00
69153;BME280;56261;51.580;4.578;2023-08-08T06:28:27;101575.63;;;15.51;100.00
69153;BME280;56261;51.580;4.578;2023-08-08T06:30:53;101577.00;;;15.47;100.00
69153;BME280;56261;51.580;4.578;2023-08-08T06:33:18;101573.56;;;15.38;100.00
69153;BME280;56261;51.580;4.578;2023-08-08T06:35:44;101579.16;;;15.66;100.00
69153;BME280;56261;51.580;4.578;2023-08-08T06:38:09;101561.09;;;15.75;100.00
69153;BME280;56261;51.580;4.578;2023-08-08T06:40:35;101574.16;;;16.08;100.00
69153;BME280;56261;51.580;4.578;2023-08-08T06:43:00;101575.94;;;15.86;100.00
69153;BME280;56261;51.580;4.578;2023-08-08T06:45:25;101577.69;;;15.93;100.00
69153;BME280;56261;51.580;4.578;2023-08-08T06:47:51;101582.31;;;15.85;100.00
69153;BME280;56261;51.580;4.578;2023-08-08T06:50:16;101578.34;;;15.95;100.00
69153;BME280;56261;51.580;4.578;2023-08-08T06:52:42;101571.81;;;16.05;100.00
69153;BME280;56261;51.580;4.578;2023-08-08T06:55:08;101573.91;;;15.88;100.00
69153;BME280;56261;51.580;4.578;2023-08-08T06:57:34;101571.84;;;15.90;100.00
69153;BME280;56261;51.580;4.578;2023-08-08T07:00:03;101567.47;;;16.40;100.00
69153;BME280;56261;51.580;4.578;2023-08-08T07:02:31;101566.97;;;16.51;100.00
69153;BME280;56261;51.580;4.578;2023-08-08T07:04:57;101558.53;;;16.76;100.00
69153;BME280;56261;51.580;4.578;2023-08-08T07:07:22;101551.84;;;16.72;100.00
69153;BME280;56261;51.580;4.578;2023-08-08T07:09:48;101549.06;;;17.01;100.00
69153;BME280;56261;51.580;4.578;2023-08-08T07:12:14;101549.09;;;17.08;100.00
69153;BME280;56261;51.580;4.578;2023-08-08T07:14:39;101551.94;;;17.28;100.00
69153;BME280;56261;51.580;4.578;2023-08-08T07:17:04;101543.25;;;17.68;100.00
69153;BME280;56261;51.580;4.578;2023-08-08T07:19:30;101547.72;;;17.19;100.00
69153;BME280;56261;51.580;4.578;2023-08-08T07:21:56;101552.56;;;17.02;100.00
69153;BME280;56261;51.580;4.578;2023-08-08T07:24:21;101558.91;;;16.73;100.00
69153;BME280;56261;51.580;4.578;2023-08-08T07:26:47;101553.72;;;16.71;100.00
69153;BME280;56261;51.580;4.578;2023-08-08T07:29:13;101573.75;;;16.47;100.00
69153;BME280;56261;51.580;4.578;2023-08-08T07:31:38;101575.16;;;16.43;100.00
69153;BME280;56261;51.580;4.578;2023-08-08T07:34:04;101564.59;;;16.63;100.00
69153;BME280;56261;51.580;4.578;2023-08-08T07:36:29;101565.41;;;16.57;100.00
69153;BME280;56261;51.580;4.578;2023-08-08T07:38:54;101566.25;;;16.43;100.00
69153;BME280;56261;51.580;4.578;2023-08-08T07:41:26;101560.84;;;16.79;100.00
69153;BME280;56261;51.580;4.578;2023-08-08T07:43:52;101559.03;;;17.36;100.00
69153;BME280;56261;51.580;4.578;2023-08-08T07:46:17;101551.50;;;17.25;100.00
69153;BME280;56261;51.580;4.578;2023-08-08T07:48:43;101563.00;;;16.84;100.00
69153;BME280;56261;51.580;4.578;2023-08-08T07:51:08;101550.25;;;16.56;100.00
69153;BME280;56261;51.580;4.578;2023-08-08T07:53:33;101560.72;;;16.87;100.00
69153;BME280;56261;51.580;4.578;2023-08-08T07:55:59;101560.72;;;16.66;100.00
69153;BME280;56261;51.580;4.578;2023-08-08T07:58:24;101562.44;;;16.73;100.00
69153;BME280;56261;51.580;4.578;2023-08-08T08:00:51;101563.00;;;16.84;100.00
69153;BME280;56261;51.580;4.578;2023-08-08T08:03:18;101569.22;;;16.69;100.00
69153;BME280;56261;51.580;4.578;2023-08-08T08:05:44;101564.81;;;16.83;100.00
69153;BME280;56261;51.580;4.578;2023-08-08T08:08:09;101564.19;;;16.59;100.00
69153;BME280;56261;51.580;4.578;2023-08-08T08:10:35;101571.56;;;16.72;100.00
69153;BME280;56261;51.580;4.578;2023-08-08T08:13:00;101580.63;;;16.50;100.00
69153;BME280;56261;51.580;4.578;2023-08-08T08:15:26;101571.16;;;16.54;100.00
69153;BME280;56261;51.580;4.578;2023-08-08T08:17:51;101584.09;;;16.44;100.00
69153;BME280;56261;51.580;4.578;2023-08-08T08:20:17;101579.88;;;16.34;100.00
69153;BME280;56261;51.580;4.578;2023-08-08T08:22:42;101579.88;;;16.19;100.00
69153;BME280;56261;51.580;4.578;2023-08-08T08:25:08;101578.66;;;16.37;100.00
69153;BME280;56261;51.580;4.578;2023-08-08T08:27:38;101579.13;;;16.26;100.00
69153;BME280;56261;51.580;4.578;2023-08-08T08:30:07;101580.47;;;16.36;100.00
69153;BME280;56261;51.580;4.578;2023-08-08T08:32:35;101572.53;;;16.28;100.00
69153;BME280;56261;51.580;4.578;2023-08-08T08:35:02;101558.59;;;16.25;100.00
69153;BME280;56261;51.580;4.578;2023-08-08T08:37:29;101571.44;;;16.59;100.00
69153;BME280;56261;51.580;4.578;2023-08-08T08:39:55;101568.28;;;16.55;100.00
69153;BME280;56261;51.580;4.578;2023-08-08T08:42:20;101568.88;;;16.36;100.00
69153;BME280;56261;51.580;4.578;2023-08-08T08:44:47;101580.63;;;16.28;100.00
69153;BME280;56261;51.580;4.578;2023-08-08T08:47:14;101574.63;;;16.69;100.00
69153;BME280;56261;51.580;4.578;2023-08-08T08:49:44;101555.75;;;17.12;100.00
69153;BME280;56261;51.580;4.578;2023-08-08T08:52:11;101548.34;;;17.49;100.00
69153;BME280;56261;51.580;4.578;2023-08-08T08:54:37;101539.06;;;17.58;100.00
69153;BME280;56261;51.580;4.578;2023-08-08T08:57:03;101540.59;;;17.74;100.00
69153;BME280;56261;51.580;4.578;2023-08-08T08:59:29;101553.41;;;17.31;100.00
69153;BME280;56261;51.580;4.578;2023-08-08T09:01:55;101552.13;;;17.27;100.00
69153;BME280;56261;51.580;4.578;2023-08-08T09:04:21;101553.97;;;17.54;100.00
69153;BME280;56261;51.580;4.578;2023-08-08T09:06:48;101555.25;;;18.61;100.00
69153;BME280;56261;51.580;4.578;2023-08-08T09:09:14;101545.63;;;18.32;100.00
69153;BME280;56261;51.580;4.578;2023-08-08T09:11:43;101550.59;;;17.80;100.00
69153;BME280;56261;51.580;4.578;2023-08-08T09:14:21;101561.16;;;17.75;100.00
69153;BME280;56261;51.580;4.578;2023-08-08T09:16:47;101555.38;;;17.15;100.00
69153;BME280;56261;51.580;4.578;2023-08-08T09:19:16;101557.75;;;17.60;100.00
69153;BME280;56261;51.580;4.578;2023-08-08T09:21:43;101551.91;;;17.56;100.00
69153;BME280;56261;51.580;4.578;2023-08-08T09:24:09;101556.25;;;17.51;100.00
69153;BME280;56261;51.580;4.578;2023-08-08T09:26:34;101563.88;;;17.47;100.00
69153;BME280;56261;51.580;4.578;2023-08-08T09:29:01;101562.78;;;17.35;100.00
69153;BME280;56261;51.580;4.578;2023-08-08T09:31:27;101551.13;;;17.62;100.00
69153;BME280;56261;51.580;4.578;2023-08-08T09:33:59;101565.91;;;17.10;100.00
69153;BME280;56261;51.580;4.578;2023-08-08T09:36:25;101572.97;;;16.90;100.00
69153;BME280;56261;51.580;4.578;2023-08-08T09:38:52;101580.00;;;16.84;100.00
69153;BME280;56261;51.580;4.578;2023-08-08T09:41:19;101575.19;;;16.79;100.00
69153;BME280;56261;51.580;4.578;2023-08-08T09:43:45;101580.09;;;16.97;100.00
69153;BME280;56261;51.580;4.578;2023-08-08T09:46:10;101571.53;;;18.13;100.00
69153;BME280;56261;51.580;4.578;2023-08-08T09:48:38;101559.63;;;18.69;100.00
69153;BME280;56261;51.580;4.578;2023-08-08T09:51:06;101565.56;;;18.31;100.00
69153;BME280;56261;51.580;4.578;2023-08-08T09:53:31;101572.56;;;17.71;100.00
69153;BME280;56261;51.580;4.578;2023-08-08T09:55:57;101578.06;;;17.56;100.00
69153;BME280;56261;51.580;4.578;2023-08-08T09:58:23;101569.88;;;17.14;100.00
69153;BME280;56261;51.580;4.578;2023-08-08T10:00:52;101576.13;;;17.15;100.00
69153;BME280;56261;51.580;4.578;2023-08-08T10:03:18;101579.19;;;17.12;100.00
69153;BME280;56261;51.580;4.578;2023-08-08T10:05:44;101570.81;;;17.28;100.00
69153;BME280;56261;51.580;4.578;2023-08-08T10:08:11;101571.19;;;18.30;100.00
69153;BME280;56261;51.580;4.578;2023-08-08T10:10:37;101555.13;;;18.15;100.00
69153;BME280;56261;51.580;4.578;2023-08-08T10:13:05;101567.34;;;18.04;100.00
69153;BME280;56261;51.580;4.578;2023-08-08T10:15:30;101558.53;;;17.82;100.00
69153;BME280;56261;51.580;4.578;2023-08-08T10:17:57;101561.47;;;17.94;100.00
69153;BME280;56261;51.580;4.578;2023-08-08T10:20:24;101560.75;;;18.20;100.00
69153;BME280;56261;51.580;4.578;2023-08-08T10:22:52;101558.00;;;18.07;100.00
69153;BME280;56261;51.580;4.578;2023-08-08T10:25:24;101565.09;;;18.14;100.00
69153;BME280;56261;51.580;4.578;2023-08-08T10:28:02;101555.47;;;18.60;100.00
69153;BME280;56261;51.580;4.578;2023-08-08T10:30:27;101554.47;;;19.01;100.00
69153;BME280;56261;51.580;4.578;2023-08-08T10:32:56;101558.63;;;19.03;100.00
69153;BME280;56261;51.580;4.578;2023-08-08T10:35:21;101567.13;;;18.67;100.00
69153;BME280;56261;51.580;4.578;2023-08-08T10:37:57;101573.41;;;18.19;100.00
69153;BME280;56261;51.580;4.578;2023-08-08T10:40:23;101568.94;;;17.92;100.00
69153;BME280;56261;51.580;4.578;2023-08-08T10:42:48;101569.44;;;17.74;100.00
69153;BME280;56261;51.580;4.578;2023-08-08T10:45:15;101561.31;;;17.67;100.00
69153;BME280;56261;51.580;4.578;2023-08-08T10:47:41;101564.66;;;17.69;100.00
69153;BME280;56261;51.580;4.578;2023-08-08T10:50:09;101549.38;;;18.38;100.00
69153;BME280;56261;51.580;4.578;2023-08-08T10:57:57;101558.00;;;18.88;100.00
69153;BME280;56261;51.580;4.578;2023-08-08T11:00:27;101552.41;;;18.90;100.00
69153;BME280;56261;51.580;4.578;2023-08-08T11:02:53;101554.28;;;19.09;100.00
69153;BME280;56261;51.580;4.578;2023-08-08T11:05:20;101561.94;;;19.39;100.00
69153;BME280;56261;51.580;4.578;2023-08-08T11:07:46;101550.09;;;19.26;100.00
69153;BME280;56261;51.580;4.578;2023-08-08T11:10:12;101558.81;;;19.28;100.00
69153;BME280;56261;51.580;4.578;2023-08-08T11:12:38;101554.47;;;19.21;100.00
69153;BME280;56261;51.580;4.578;2023-08-08T11:15:03;101559.25;;;19.19;100.00
69153;BME280;56261;51.580;4.578;2023-08-08T11:17:30;101556.50;;;19.52;100.00
69153;BME280;56261;51.580;4.578;2023-08-08T11:19:55;101550.25;;;19.58;100.00
69153;BME280;56261;51.580;4.578;2023-08-08T11:22:21;101537.66;;;19.97;100.00
69153;BME280;56261;51.580;4.578;2023-08-08T11:24:48;101549.34;;;19.84;100.00
69153;BME280;56261;51.580;4.578;2023-08-08T11:27:15;101546.66;;;20.29;100.00
69153;BME280;56261;51.580;4.578;2023-08-08T11:29:41;101548.88;;;20.07;100.00
69153;BME280;56261;51.580;4.578;2023-08-08T11:32:13;101552.31;;;19.76;100.00
69153;BME280;56261;51.580;4.578;2023-08-08T11:34:39;101552.97;;;19.72;100.00
69153;BME280;56261;51.580;4.578;2023-08-08T11:37:04;101554.63;;;20.18;100.00
69153;BME280;56261;51.580;4.578;2023-08-08T11:39:30;101567.50;;;19.77;100.00
69153;BME280;56261;51.580;4.578;2023-08-08T11:41:55;101551.25;;;19.64;100.00
69153;BME280;56261;51.580;4.578;2023-08-08T11:44:21;101550.06;;;20.11;100.00
69153;BME280;56261;51.580;4.578;2023-08-08T11:46:47;101550.50;;;20.08;100.00
69153;BME280;56261;51.580;4.578;2023-08-08T11:49:15;101557.75;;;19.49;100.00
69153;BME280;56261;51.580;4.578;2023-08-08T11:51:43;101556.13;;;19.15;100.00
69153;BME280;56261;51.580;4.578;2023-08-08T11:54:08;101549.44;;;18.71;100.00
69153;BME280;56261;51.580;4.578;2023-08-08T11:56:34;101549.06;;;19.27;100.00
69153;BME280;56261;51.580;4.578;2023-08-08T11:59:01;101543.63;;;19.47;100.00
69153;BME280;56261;51.580;4.578;2023-08-08T12:01:27;101560.75;;;20.00;100.00
69153;BME280;56261;51.580;4.578;2023-08-08T12:03:53;101537.09;;;19.68;100.00
69153;BME280;56261;51.580;4.578;2023-08-08T12:06:19;101541.22;;;19.91;100.00
69153;BME280;56261;51.580;4.578;2023-08-08T12:08:47;101540.19;;;20.30;100.00
69153;BME280;56261;51.580;4.578;2023-08-08T12:11:14;101534.91;;;20.42;100.00
69153;BME280;56261;51.580;4.578;2023-08-08T12:13:44;101535.78;;;19.91;100.00
69153;BME280;56261;51.580;4.578;2023-08-08T12:16:11;101534.78;;;19.85;100.00
69153;BME280;56261;51.580;4.578;2023-08-08T12:18:37;101535.81;;;19.84;100.00
69153;BME280;56261;51.580;4.578;2023-08-08T12:21:07;101533.59;;;20.13;100.00
69153;BME280;56261;51.580;4.578;2023-08-08T12:23:34;101534.56;;;20.32;100.00
69153;BME280;56261;51.580;4.578;2023-08-08T12:26:00;101532.50;;;19.82;100.00
69153;BME280;56261;51.580;4.578;2023-08-08T12:28:28;101520.41;;;20.30;100.00
69153;BME280;56261;51.580;4.578;2023-08-08T12:30:53;101522.41;;;20.41;100.00
69153;BME280;56261;51.580;4.578;2023-08-08T12:33:18;101532.75;;;20.51;100.00
69153;BME280;56261;51.580;4.578;2023-08-08T12:35:44;101531.13;;;20.50;100.00
69153;BME280;56261;51.580;4.578;2023-08-08T12:38:09;101542.59;;;20.07;100.00
69153;BME280;56261;51.580;4.578;2023-08-08T12:40:35;101535.06;;;20.16;100.00